^^
Saratoga-Weather Station Historical Data
Daily Summary for January 25, 2020 Units:  Both    English   Metric
Daily Weekly Monthly Yearly Custom
  High: Low: Average:
Temperature: 70.9 °F /  21.6 °C 47.7 °F /  8.7 °C 60.1 °F /  15.6 °C
Dew Point: 54.5 °F /  12.5 °C 46 °F /  7.8 °C 50.5 °F /  10.3 °C
Humidity: 95% 49% 73%
Wind Speed: 8.1mph /  13km/h - 1.2mph /  2km/h
Wind Gust: 13mph /  20.9km/h - -
Wind- - SSW
Pressure: 30.5 in /  1032.8 hPa 30.5 in /  1031.2 hPa -
Precipitation: 0 in /  0.0 mm    
Historical Graphs
 
 
Tabular Data for January 25, 2020
Time Temperature Dew Point Pressure Wind Wind Speed Wind Gust Humidity Rainfall Rate (Hourly) solar
00:02 53.1 °F /  11.7 °C 49.6 °F /  9.8 °C 30.5in /  1031.8hPa Calm   1mph /  1.6km/h 88% 0in /  0.0mm 0 W/m2
00:07 52.9 °F /  11.6 °C 49.5 °F /  9.7 °C 30.5in /  1031.8hPa Calm     88% 0in /  0.0mm 0 W/m2
00:12 52.5 °F /  11.4 °C 49.5 °F /  9.7 °C 30.5in /  1031.8hPa Calm   1mph /  1.6km/h 89% 0in /  0.0mm 0 W/m2
00:17 52.3 °F /  11.3 °C 49.3 °F /  9.6 °C 30.5in /  1031.8hPa Calm     89% 0in /  0.0mm 0 W/m2
00:22 52.2 °F /  11.2 °C 49.3 °F /  9.6 °C 30.5in /  1031.8hPa Calm     90% 0in /  0.0mm 0 W/m2
00:27 52.2 °F /  11.2 °C 49.3 °F /  9.6 °C 30.5in /  1031.8hPa Calm     90% 0in /  0.0mm 0 W/m2
00:33 52 °F /  11.1 °C 49.1 °F /  9.5 °C 30.5in /  1031.8hPa Calm     90% 0in /  0.0mm 0 W/m2
00:38 51.6 °F /  10.9 °C 49.1 °F /  9.5 °C 30.5in /  1031.8hPa Calm     91% 0in /  0.0mm 0 W/m2
00:43 51.4 °F /  10.8 °C 48.9 °F /  9.4 °C 30.5in /  1031.8hPa Calm     91% 0in /  0.0mm 0 W/m2
00:48 51.4 °F /  10.8 °C 48.9 °F /  9.4 °C 30.5in /  1031.8hPa Calm     91% 0in /  0.0mm 0 W/m2
00:53 51.3 °F /  10.7 °C 48.7 °F /  9.3 °C 30.5in /  1031.8hPa Calm     91% 0in /  0.0mm 0 W/m2
00:58 51.1 °F /  10.6 °C 48.6 °F /  9.2 °C 30.5in /  1031.8hPa Calm     91% 0in /  0.0mm 0 W/m2
01:03 50.7 °F /  10.4 °C 48.2 °F /  9 °C 30.5in /  1031.8hPa Calm     91% 0in /  0.0mm 0 W/m2
01:08 50.7 °F /  10.4 °C 48.6 °F /  9.2 °C 30.5in /  1031.5hPa Calm     92% 0in /  0.0mm 0 W/m2
01:13 50.5 °F /  10.3 °C 48.4 °F /  9.1 °C 30.5in /  1031.5hPa Calm     92% 0in /  0.0mm 0 W/m2
01:18 50.4 °F /  10.2 °C 48.2 °F /  9 °C 30.5in /  1031.5hPa Calm     92% 0in /  0.0mm 0 W/m2
01:23 50.4 °F /  10.2 °C 48.2 °F /  9 °C 30.5in /  1031.5hPa Calm     92% 0in /  0.0mm 0 W/m2
01:28 50.4 °F /  10.2 °C 48.2 °F /  9 °C 30.5in /  1031.5hPa Calm     92% 0in /  0.0mm 0 W/m2
01:33 50.2 °F /  10.1 °C 48.2 °F /  9 °C 30.5in /  1031.5hPa Calm     93% 0in /  0.0mm 0 W/m2
01:38 50.2 °F /  10.1 °C 48.2 °F /  9 °C 30.5in /  1031.5hPa Calm     93% 0in /  0.0mm 0 W/m2
01:43 50.2 °F /  10.1 °C 48.2 °F /  9 °C 30.5in /  1031.5hPa Calm     93% 0in /  0.0mm 0 W/m2
01:48 50 °F /  10 °C 48 °F /  8.9 °C 30.5in /  1031.5hPa Calm     93% 0in /  0.0mm 0 W/m2
01:53 50 °F /  10 °C 48 °F /  8.9 °C 30.5in /  1031.5hPa Calm     93% 0in /  0.0mm 0 W/m2
01:59 50 °F /  10 °C 48 °F /  8.9 °C 30.5in /  1031.5hPa Calm     93% 0in /  0.0mm 0 W/m2
02:04 49.8 °F /  9.9 °C 47.8 °F /  8.8 °C 30.5in /  1031.5hPa Calm     93% 0in /  0.0mm 0 W/m2
02:09 49.8 °F /  9.9 °C 47.8 °F /  8.8 °C 30.5in /  1031.5hPa Calm     93% 0in /  0.0mm 0 W/m2
02:14 49.8 °F /  9.9 °C 48.2 °F /  9 °C 30.5in /  1031.5hPa Calm     94% 0in /  0.0mm 0 W/m2
02:19 49.8 °F /  9.9 °C 48.2 °F /  9 °C 30.5in /  1031.5hPa South 0.9mph /  1.4km/h 1mph /  1.6km/h 94% 0in /  0.0mm 0 W/m2
02:24 49.8 °F /  9.9 °C 48.2 °F /  9 °C 30.5in /  1031.5hPa Calm     94% 0in /  0.0mm 0 W/m2
02:29 49.8 °F /  9.9 °C 48.2 °F /  9 °C 30.5in /  1031.5hPa South 0.9mph /  1.4km/h 1mph /  1.6km/h 94% 0in /  0.0mm 0 W/m2
02:34 49.8 °F /  9.9 °C 48.2 °F /  9 °C 30.5in /  1031.5hPa Calm   1mph /  1.6km/h 94% 0in /  0.0mm 0 W/m2
02:39 50.2 °F /  10.1 °C 48.6 °F /  9.2 °C 30.5in /  1031.8hPa NW 2mph /  3.2km/h 2mph /  3.2km/h 94% 0in /  0.0mm 0 W/m2
02:44 50.4 °F /  10.2 °C 48.7 °F /  9.3 °C 30.5in /  1031.5hPa NW 0.9mph /  1.4km/h 2mph /  3.2km/h 94% 0in /  0.0mm 0 W/m2
02:49 50.5 °F /  10.3 °C 48.9 °F /  9.4 °C 30.5in /  1031.5hPa West 0.9mph /  1.4km/h 2mph /  3.2km/h 94% 0in /  0.0mm 0 W/m2
02:54 50.9 °F /  10.5 °C 49.3 °F /  9.6 °C 30.5in /  1031.5hPa West 0.9mph /  1.4km/h 2mph /  3.2km/h 94% 0in /  0.0mm 0 W/m2
02:59 51.4 °F /  10.8 °C 49.8 °F /  9.9 °C 30.5in /  1031.5hPa West 0.9mph /  1.4km/h 2mph /  3.2km/h 94% 0in /  0.0mm 0 W/m2
03:04 51.4 °F /  10.8 °C 49.5 °F /  9.7 °C 30.5in /  1031.5hPa West 2mph /  3.2km/h 3mph /  4.8km/h 93% 0in /  0.0mm 0 W/m2
03:09 51.4 °F /  10.8 °C 49.3 °F /  9.6 °C 30.5in /  1031.5hPa West 2mph /  3.2km/h 2mph /  3.2km/h 92% 0in /  0.0mm 0 W/m2
03:14 51.4 °F /  10.8 °C 49.3 °F /  9.6 °C 30.5in /  1031.5hPa West 2mph /  3.2km/h 2mph /  3.2km/h 92% 0in /  0.0mm 0 W/m2
03:19 51.3 °F /  10.7 °C 49.1 °F /  9.5 °C 30.5in /  1031.5hPa West 0.9mph /  1.4km/h 1mph /  1.6km/h 92% 0in /  0.0mm 0 W/m2
03:24 51.1 °F /  10.6 °C 48.9 °F /  9.4 °C 30.5in /  1031.5hPa West 0.9mph /  1.4km/h 1mph /  1.6km/h 92% 0in /  0.0mm 0 W/m2
03:29 50.7 °F /  10.4 °C 48.6 °F /  9.2 °C 30.5in /  1031.5hPa Calm   2mph /  3.2km/h 92% 0in /  0.0mm 0 W/m2
03:34 50.5 °F /  10.3 °C 48.4 °F /  9.1 °C 30.5in /  1031.5hPa Calm     92% 0in /  0.0mm 0 W/m2
03:39 50.5 °F /  10.3 °C 48.4 °F /  9.1 °C 30.5in /  1031.8hPa Calm     92% 0in /  0.0mm 0 W/m2
03:44 50.4 °F /  10.2 °C 48.2 °F /  9 °C 30.5in /  1031.8hPa Calm     92% 0in /  0.0mm 0 W/m2
03:49 50.2 °F /  10.1 °C 48 °F /  8.9 °C 30.5in /  1031.8hPa Calm     92% 0in /  0.0mm 0 W/m2
03:54 50.2 °F /  10.1 °C 48 °F /  8.9 °C 30.5in /  1031.8hPa Calm     92% 0in /  0.0mm 0 W/m2
03:59 49.8 °F /  9.9 °C 47.8 °F /  8.8 °C 30.5in /  1031.8hPa Calm     93% 0in /  0.0mm 0 W/m2
04:04 49.6 °F /  9.8 °C 47.5 °F /  8.6 °C 30.5in /  1031.8hPa Calm     92% 0in /  0.0mm 0 W/m2
04:09 49.6 °F /  9.8 °C 47.7 °F /  8.7 °C 30.5in /  1031.8hPa Calm     93% 0in /  0.0mm 0 W/m2
04:14 49.6 °F /  9.8 °C 47.7 °F /  8.7 °C 30.5in /  1031.8hPa Calm     93% 0in /  0.0mm 0 W/m2
04:19 49.5 °F /  9.7 °C 47.5 °F /  8.6 °C 30.5in /  1031.8hPa Calm     93% 0in /  0.0mm 0 W/m2
04:24 49.5 °F /  9.7 °C 47.5 °F /  8.6 °C 30.5in /  1031.8hPa Calm     93% 0in /  0.0mm 0 W/m2
04:29 49.5 °F /  9.7 °C 47.5 °F /  8.6 °C 30.5in /  1031.8hPa Calm   1mph /  1.6km/h 93% 0in /  0.0mm 0 W/m2
04:35 49.3 °F /  9.6 °C 47.3 °F /  8.5 °C 30.5in /  1031.8hPa Calm     93% 0in /  0.0mm 0 W/m2
04:40 49.3 °F /  9.6 °C 47.7 °F /  8.7 °C 30.5in /  1031.8hPa Calm     94% 0in /  0.0mm 0 W/m2
04:45 49.3 °F /  9.6 °C 47.7 °F /  8.7 °C 30.5in /  1031.8hPa Calm     94% 0in /  0.0mm 0 W/m2
04:50 49.1 °F /  9.5 °C 47.5 °F /  8.6 °C 30.5in /  1031.8hPa Calm     94% 0in /  0.0mm 0 W/m2
04:55 48.9 °F /  9.4 °C 47.3 °F /  8.5 °C 30.5in /  1031.8hPa Calm     94% 0in /  0.0mm 0 W/m2
05:00 48.9 °F /  9.4 °C 46.9 °F /  8.3 °C 30.5in /  1031.8hPa Calm     93% 0in /  0.0mm 0 W/m2
05:05 48.7 °F /  9.3 °C 46.8 °F /  8.2 °C 30.5in /  1031.8hPa Calm     93% 0in /  0.0mm 0 W/m2
05:10 48.6 °F /  9.2 °C 46.9 °F /  8.3 °C 30.5in /  1032.2hPa Calm     94% 0in /  0.0mm 0 W/m2
05:15 48.6 °F /  9.2 °C 46.9 °F /  8.3 °C 30.5in /  1032.2hPa Calm     94% 0in /  0.0mm 0 W/m2
05:20 48.4 °F /  9.1 °C 46.8 °F /  8.2 °C 30.5in /  1032.2hPa Calm     94% 0in /  0.0mm 0 W/m2
05:25 48.2 °F /  9 °C 46.6 °F /  8.1 °C 30.5in /  1032.2hPa Calm     94% 0in /  0.0mm 0 W/m2
05:30 48 °F /  8.9 °C 46.4 °F /  8 °C 30.5in /  1032.2hPa Calm     94% 0in /  0.0mm 0 W/m2
05:35 48 °F /  8.9 °C 46.4 °F /  8 °C 30.5in /  1032.2hPa Calm   1mph /  1.6km/h 94% 0in /  0.0mm 0 W/m2
05:40 47.8 °F /  8.8 °C 46.2 °F /  7.9 °C 30.5in /  1032.2hPa Calm     94% 0in /  0.0mm 0 W/m2
05:45 47.8 °F /  8.8 °C 46.2 °F /  7.9 °C 30.5in /  1032.2hPa Calm   1mph /  1.6km/h 94% 0in /  0.0mm 5 W/m2
05:50 47.7 °F /  8.7 °C 46 °F /  7.8 °C 30.5in /  1032.2hPa Calm     94% 0in /  0.0mm 7 W/m2
05:55 47.7 °F /  8.7 °C 46 °F /  7.8 °C 30.5in /  1032.2hPa Calm     94% 0in /  0.0mm 11 W/m2
06:00 47.7 °F /  8.7 °C 46 °F /  7.8 °C 30.5in /  1032.2hPa Calm     94% 0in /  0.0mm 12 W/m2
06:05 47.7 °F /  8.7 °C 46 °F /  7.8 °C 30.5in /  1031.8hPa Calm     94% 0in /  0.0mm 12 W/m2
06:10 47.7 °F /  8.7 °C 46.2 °F /  7.9 °C 30.5in /  1031.8hPa Calm     95% 0in /  0.0mm 12 W/m2
06:15 47.7 °F /  8.7 °C 46.2 °F /  7.9 °C 30.5in /  1032.2hPa Calm     95% 0in /  0.0mm 14 W/m2
06:20 47.8 °F /  8.8 °C 46.4 °F /  8 °C 30.5in /  1032.2hPa Calm     95% 0in /  0.0mm 16 W/m2
06:25 47.8 °F /  8.8 °C 46.4 °F /  8 °C 30.5in /  1032.2hPa Calm     95% 0in /  0.0mm 19 W/m2
06:30 47.8 °F /  8.8 °C 46.4 °F /  8 °C 30.5in /  1032.2hPa Calm     95% 0in /  0.0mm 25 W/m2
06:35 48 °F /  8.9 °C 46.6 °F /  8.1 °C 30.5in /  1032.2hPa Calm   2mph /  3.2km/h 95% 0in /  0.0mm 26 W/m2
06:40 48.2 °F /  9 °C 46.8 °F /  8.2 °C 30.5in /  1032.2hPa West 0.9mph /  1.4km/h 1mph /  1.6km/h 95% 0in /  0.0mm 32 W/m2
06:45 48.4 °F /  9.1 °C 46.9 °F /  8.3 °C 30.5in /  1032.2hPa Calm     95% 0in /  0.0mm 32 W/m2
06:50 48.6 °F /  9.2 °C 47.1 °F /  8.4 °C 30.5in /  1032.2hPa Calm     95% 0in /  0.0mm 32 W/m2
06:55 48.7 °F /  9.3 °C 47.3 °F /  8.5 °C 30.5in /  1032.2hPa Calm     95% 0in /  0.0mm 35 W/m2
07:00 48.7 °F /  9.3 °C 47.3 °F /  8.5 °C 30.5in /  1032.2hPa Calm   1mph /  1.6km/h 95% 0in /  0.0mm 30 W/m2
07:05 49.1 °F /  9.5 °C 47.7 °F /  8.7 °C 30.5in /  1032.2hPa Calm     95% 0in /  0.0mm 32 W/m2
07:10 49.3 °F /  9.6 °C 47.8 °F /  8.8 °C 30.5in /  1032.2hPa Calm     95% 0in /  0.0mm 44 W/m2
07:15 49.5 °F /  9.7 °C 48 °F /  8.9 °C 30.5in /  1032.5hPa Calm     95% 0in /  0.0mm 53 W/m2
07:20 49.6 °F /  9.8 °C 48.2 °F /  9 °C 30.5in /  1032.5hPa Calm     95% 0in /  0.0mm 69 W/m2
07:25 49.8 °F /  9.9 °C 48.4 °F /  9.1 °C 30.5in /  1032.5hPa Calm     95% 0in /  0.0mm 84 W/m2
07:30 50.4 °F /  10.2 °C 48.9 °F /  9.4 °C 30.5in /  1032.5hPa Calm     95% 0in /  0.0mm 86 W/m2
07:35 50.7 °F /  10.4 °C 49.3 °F /  9.6 °C 30.5in /  1032.5hPa Calm     95% 0in /  0.0mm 86 W/m2
07:40 51.3 °F /  10.7 °C 49.8 °F /  9.9 °C 30.5in /  1032.5hPa Calm     95% 0in /  0.0mm 113 W/m2
07:45 52 °F /  11.1 °C 50.5 °F /  10.3 °C 30.5in /  1032.5hPa Calm     95% 0in /  0.0mm 223 W/m2
07:50 52.9 °F /  11.6 °C 51.4 °F /  10.8 °C 30.5in /  1032.5hPa Calm     95% 0in /  0.0mm 241 W/m2
07:55 54.1 °F /  12.3 °C 52.2 °F /  11.2 °C 30.5in /  1032.5hPa NW 0.9mph /  1.4km/h 3mph /  4.8km/h 93% 0in /  0.0mm 258 W/m2
08:00 55.4 °F /  13 °C 52.9 °F /  11.6 °C 30.5in /  1032.5hPa NW 2.9mph /  4.7km/h 3mph /  4.8km/h 91% 0in /  0.0mm 276 W/m2
08:05 56.1 °F /  13.4 °C 52.7 °F /  11.5 °C 30.5in /  1032.5hPa West 2mph /  3.2km/h 2mph /  3.2km/h 88% 0in /  0.0mm 292 W/m2
08:10 56.8 °F /  13.8 °C 52.7 °F /  11.5 °C 30.5in /  1032.5hPa West 4mph /  6.4km/h 6mph /  9.7km/h 86% 0in /  0.0mm 288 W/m2
08:15 57.4 °F /  14.1 °C 52.5 °F /  11.4 °C 30.5in /  1032.5hPa WNW 2.9mph /  4.7km/h 4mph /  6.4km/h 84% 0in /  0.0mm 295 W/m2
08:20 57.7 °F /  14.3 °C 52.3 °F /  11.3 °C 30.5in /  1032.5hPa NNW 2mph /  3.2km/h 6mph /  9.7km/h 82% 0in /  0.0mm 308 W/m2
08:25 58.3 °F /  14.6 °C 52.5 °F /  11.4 °C 30.5in /  1032.8hPa Calm   3mph /  4.8km/h 81% 0in /  0.0mm 327 W/m2
08:30 58.6 °F /  14.8 °C 52.2 °F /  11.2 °C 30.5in /  1032.8hPa WNW 0.9mph /  1.4km/h 3mph /  4.8km/h 79% 0in /  0.0mm 334 W/m2
08:35 58.8 °F /  14.9 °C 52.3 °F /  11.3 °C 30.5in /  1032.8hPa WNW 2mph /  3.2km/h 2mph /  3.2km/h 79% 0in /  0.0mm 325 W/m2
08:40 59 °F /  15 °C 52.5 °F /  11.4 °C 30.5in /  1032.8hPa WNW 2mph /  3.2km/h 3mph /  4.8km/h 79% 0in /  0.0mm 302 W/m2
08:45 59.2 °F /  15.1 °C 52.7 °F /  11.5 °C 30.5in /  1032.8hPa West 0.9mph /  1.4km/h 4mph /  6.4km/h 79% 0in /  0.0mm 380 W/m2
08:50 59.4 °F /  15.2 °C 52.5 °F /  11.4 °C 30.5in /  1032.8hPa WNW 0.9mph /  1.4km/h 3mph /  4.8km/h 78% 0in /  0.0mm 394 W/m2
08:55 59.5 °F /  15.3 °C 52.7 °F /  11.5 °C 30.5in /  1032.8hPa Calm   3mph /  4.8km/h 78% 0in /  0.0mm 392 W/m2
09:00 59.7 °F /  15.4 °C 52.9 °F /  11.6 °C 30.5in /  1032.8hPa NW 2.9mph /  4.7km/h 5mph /  8km/h 78% 0in /  0.0mm 432 W/m2
09:05 60.1 °F /  15.6 °C 53.2 °F /  11.8 °C 30.5in /  1032.8hPa WNW 0.9mph /  1.4km/h 9mph /  14.5km/h 78% 0in /  0.0mm 448 W/m2
09:10 60.4 °F /  15.8 °C 52.9 °F /  11.6 °C 30.5in /  1032.8hPa NE 4mph /  6.4km/h 6mph /  9.7km/h 76% 0in /  0.0mm 466 W/m2
09:15 61 °F /  16.1 °C 52.7 °F /  11.5 °C 30.5in /  1032.8hPa WNW 2mph /  3.2km/h 9mph /  14.5km/h 74% 0in /  0.0mm 471 W/m2
09:20 61.3 °F /  16.3 °C 53.4 °F /  11.9 °C 30.5in /  1032.8hPa West 0.9mph /  1.4km/h 1mph /  1.6km/h 75% 0in /  0.0mm 508 W/m2
09:25 62.1 °F /  16.7 °C 53.6 °F /  12 °C 30.5in /  1032.8hPa NNE 2mph /  3.2km/h 3mph /  4.8km/h 74% 0in /  0.0mm 513 W/m2
09:31 62.6 °F /  17 °C 54.1 °F /  12.3 °C 30.5in /  1032.8hPa East 4mph /  6.4km/h 6mph /  9.7km/h 74% 0in /  0.0mm 589 W/m2
09:36 63.1 °F /  17.3 °C 54 °F /  12.2 °C 30.5in /  1032.8hPa Calm   3mph /  4.8km/h 72% 0in /  0.0mm 589 W/m2
09:41 63.7 °F /  17.6 °C 54.5 °F /  12.5 °C 30.5in /  1032.8hPa ENE 2mph /  3.2km/h 4mph /  6.4km/h 72% 0in /  0.0mm 585 W/m2
09:46 63.9 °F /  17.7 °C 54 °F /  12.2 °C 30.5in /  1032.8hPa Calm   3mph /  4.8km/h 70% 0in /  0.0mm 621 W/m2
09:51 64 °F /  17.8 °C 54.1 °F /  12.3 °C 30.5in /  1032.8hPa East 4mph /  6.4km/h 6mph /  9.7km/h 70% 0in /  0.0mm 582 W/m2
09:56 64 °F /  17.8 °C 53.6 °F /  12 °C 30.5in /  1032.8hPa East 2.9mph /  4.7km/h 6mph /  9.7km/h 69% 0in /  0.0mm 125 W/m2
10:01 64.2 °F /  17.9 °C 53.8 °F /  12.1 °C 30.5in /  1032.8hPa West 4mph /  6.4km/h 8mph /  12.9km/h 69% 0in /  0.0mm 188 W/m2
10:06 63.9 °F /  17.7 °C 53.1 °F /  11.7 °C 30.5in /  1032.8hPa West 2mph /  3.2km/h 10mph /  16.1km/h 68% 0in /  0.0mm 188 W/m2
10:11 63.3 °F /  17.4 °C 52.2 °F /  11.2 °C 30.5in /  1032.8hPa North 2.9mph /  4.7km/h 6mph /  9.7km/h 67% 0in /  0.0mm 153 W/m2
10:16 63.1 °F /  17.3 °C 52.9 °F /  11.6 °C 30.5in /  1032.8hPa WNW 4mph /  6.4km/h 6mph /  9.7km/h 69% 0in /  0.0mm 295 W/m2
10:21 62.8 °F /  17.1 °C 52 °F /  11.1 °C 30.5in /  1032.8hPa WNW 4mph /  6.4km/h 10mph /  16.1km/h 68% 0in /  0.0mm 176 W/m2
10:26 62.2 °F /  16.8 °C 52 °F /  11.1 °C 30.5in /  1032.8hPa NNW 4.9mph /  7.9km/h 5mph /  8km/h 69% 0in /  0.0mm 686 W/m2
10:31 62.1 °F /  16.7 °C 52.2 °F /  11.2 °C 30.5in /  1032.8hPa NNW 0.9mph /  1.4km/h 10mph /  16.1km/h 70% 0in /  0.0mm 176 W/m2
10:36 62.1 °F /  16.7 °C 52.5 °F /  11.4 °C 30.5in /  1032.8hPa ENE 2mph /  3.2km/h 3mph /  4.8km/h 71% 0in /  0.0mm 190 W/m2
10:41 61.9 °F /  16.6 °C 52.3 °F /  11.3 °C 30.5in /  1032.8hPa NE 2mph /  3.2km/h 5mph /  8km/h 71% 0in /  0.0mm 262 W/m2
10:46 62.1 °F /  16.7 °C 52.5 °F /  11.4 °C 30.5in /  1032.8hPa SW 2mph /  3.2km/h 2mph /  3.2km/h 71% 0in /  0.0mm 188 W/m2
10:51 62.6 °F /  17 °C 52.7 °F /  11.5 °C 30.5in /  1032.8hPa West 4mph /  6.4km/h 7mph /  11.3km/h 70% 0in /  0.0mm 773 W/m2
10:56 63.3 °F /  17.4 °C 52.5 °F /  11.4 °C 30.5in /  1032.8hPa South 0.9mph /  1.4km/h 6mph /  9.7km/h 68% 0in /  0.0mm 886 W/m2
11:01 63.9 °F /  17.7 °C 52.7 °F /  11.5 °C 30.5in /  1032.8hPa NW 2mph /  3.2km/h 7mph /  11.3km/h 67% 0in /  0.0mm 877 W/m2
11:06 64.2 °F /  17.9 °C 52.7 °F /  11.5 °C 30.5in /  1032.8hPa WNW 4mph /  6.4km/h 10mph /  16.1km/h 66% 0in /  0.0mm 819 W/m2
11:11 64.6 °F /  18.1 °C 52.9 °F /  11.6 °C 30.5in /  1032.8hPa WNW 6mph /  9.7km/h 6mph /  9.7km/h 66% 0in /  0.0mm 752 W/m2
11:16 64.8 °F /  18.2 °C 52.3 °F /  11.3 °C 30.5in /  1032.5hPa West 8.1mph /  13km/h 8mph /  12.9km/h 64% 0in /  0.0mm 791 W/m2
11:21 64.8 °F /  18.2 °C 51.8 °F /  11 °C 30.5in /  1032.5hPa ESE 2mph /  3.2km/h 4mph /  6.4km/h 63% 0in /  0.0mm 860 W/m2
11:26 64.9 °F /  18.3 °C 51.6 °F /  10.9 °C 30.5in /  1032.8hPa NW 4mph /  6.4km/h 6mph /  9.7km/h 62% 0in /  0.0mm 735 W/m2
11:32 64.9 °F /  18.3 °C 52 °F /  11.1 °C 30.5in /  1032.5hPa West 2.9mph /  4.7km/h 6mph /  9.7km/h 63% 0in /  0.0mm 807 W/m2
11:37 65.7 °F /  18.7 °C 52.3 °F /  11.3 °C 30.5in /  1032.8hPa ENE 4.9mph /  7.9km/h 5mph /  8km/h 62% 0in /  0.0mm 858 W/m2
11:42 66 °F /  18.9 °C 52.7 °F /  11.5 °C 30.5in /  1032.5hPa ESE 2.9mph /  4.7km/h 11mph /  17.7km/h 62% 0in /  0.0mm 896 W/m2
11:47 66.2 °F /  19 °C 52.9 °F /  11.6 °C 30.5in /  1032.5hPa SE 2.9mph /  4.7km/h 4mph /  6.4km/h 62% 0in /  0.0mm 928 W/m2
11:52 66 °F /  18.9 °C 52.2 °F /  11.2 °C 30.5in /  1032.5hPa ENE 2mph /  3.2km/h 11mph /  17.7km/h 61% 0in /  0.0mm 928 W/m2
11:57 65.7 °F /  18.7 °C 52.3 °F /  11.3 °C 30.5in /  1032.5hPa ENE 2mph /  3.2km/h 5mph /  8km/h 62% 0in /  0.0mm 207 W/m2
12:02 65.3 °F /  18.5 °C 52.3 °F /  11.3 °C 30.5in /  1032.5hPa NW 0.9mph /  1.4km/h 9mph /  14.5km/h 63% 0in /  0.0mm 983 W/m2
12:07 65.8 °F /  18.8 °C 52 °F /  11.1 °C 30.5in /  1032.5hPa West 0.9mph /  1.4km/h 3mph /  4.8km/h 61% 0in /  0.0mm 339 W/m2
12:12 66 °F /  18.9 °C 52.7 °F /  11.5 °C 30.5in /  1032.5hPa NNW 2.9mph /  4.7km/h 5mph /  8km/h 62% 0in /  0.0mm 258 W/m2
12:17 65.5 °F /  18.6 °C 52.5 °F /  11.4 °C 30.5in /  1032.5hPa NE 2.9mph /  4.7km/h 4mph /  6.4km/h 63% 0in /  0.0mm 181 W/m2
12:22 65.8 °F /  18.8 °C 51.6 °F /  10.9 °C 30.5in /  1032.5hPa North 4mph /  6.4km/h 4mph /  6.4km/h 60% 0in /  0.0mm 1042 W/m2
12:27 65.8 °F /  18.8 °C 51.6 °F /  10.9 °C 30.5in /  1032.5hPa ENE 4mph /  6.4km/h 10mph /  16.1km/h 60% 0in /  0.0mm 545 W/m2
12:32 66.2 °F /  19 °C 52.3 °F /  11.3 °C 30.5in /  1032.5hPa WNW 2mph /  3.2km/h 4mph /  6.4km/h 61% 0in /  0.0mm 517 W/m2
12:37 66.7 °F /  19.3 °C 52.3 °F /  11.3 °C 30.5in /  1032.5hPa ESE 0.9mph /  1.4km/h 10mph /  16.1km/h 60% 0in /  0.0mm 388 W/m2
12:42 66.7 °F /  19.3 °C 52.3 °F /  11.3 °C 30.5in /  1032.5hPa NE 2.9mph /  4.7km/h 3mph /  4.8km/h 60% 0in /  0.0mm 371 W/m2
12:47 66.4 °F /  19.1 °C 52.2 °F /  11.2 °C 30.5in /  1032.5hPa East 4mph /  6.4km/h 9mph /  14.5km/h 60% 0in /  0.0mm 325 W/m2
12:52 66 °F /  18.9 °C 52.2 °F /  11.2 °C 30.5in /  1032.5hPa ESE 2mph /  3.2km/h 11mph /  17.7km/h 61% 0in /  0.0mm 260 W/m2
12:57 65.7 °F /  18.7 °C 51.8 °F /  11 °C 30.5in /  1032.5hPa East 2mph /  3.2km/h 5mph /  8km/h 61% 0in /  0.0mm 202 W/m2
13:02 65.5 °F /  18.6 °C 51.6 °F /  10.9 °C 30.5in /  1032.5hPa Calm   8mph /  12.9km/h 61% 0in /  0.0mm 227 W/m2
13:07 65.5 °F /  18.6 °C 52.5 °F /  11.4 °C 30.5in /  1032.5hPa NE 0.9mph /  1.4km/h 2mph /  3.2km/h 63% 0in /  0.0mm 301 W/m2
13:12 65.8 °F /  18.8 °C 52.5 °F /  11.4 °C 30.5in /  1032.5hPa ENE 0.9mph /  1.4km/h 4mph /  6.4km/h 62% 0in /  0.0mm 364 W/m2
13:17 66 °F /  18.9 °C 52.2 °F /  11.2 °C 30.5in /  1032.5hPa ENE 2mph /  3.2km/h 5mph /  8km/h 61% 0in /  0.0mm 269 W/m2
13:22 66 °F /  18.9 °C 52.2 °F /  11.2 °C 30.5in /  1032.5hPa NE 2mph /  3.2km/h 4mph /  6.4km/h 61% 0in /  0.0mm 218 W/m2
13:27 65.7 °F /  18.7 °C 52.3 °F /  11.3 °C 30.5in /  1032.5hPa NNW 4.9mph /  7.9km/h 5mph /  8km/h 62% 0in /  0.0mm 267 W/m2
13:32 65.7 °F /  18.7 °C 51.8 °F /  11 °C 30.5in /  1032.5hPa Calm   6mph /  9.7km/h 61% 0in /  0.0mm 320 W/m2
13:37 65.8 °F /  18.8 °C 52.5 °F /  11.4 °C 30.5in /  1032.2hPa WSW 0.9mph /  1.4km/h 1mph /  1.6km/h 62% 0in /  0.0mm 285 W/m2
13:42 66 °F /  18.9 °C 52.7 °F /  11.5 °C 30.5in /  1032.5hPa WNW 2.9mph /  4.7km/h 3mph /  4.8km/h 62% 0in /  0.0mm 250 W/m2
13:47 65.8 °F /  18.8 °C 52.5 °F /  11.4 °C 30.5in /  1032.2hPa Calm   3mph /  4.8km/h 62% 0in /  0.0mm 183 W/m2
13:52 65.8 °F /  18.8 °C 52.5 °F /  11.4 °C 30.5in /  1032.2hPa Calm   2mph /  3.2km/h 62% 0in /  0.0mm 139 W/m2
13:57 65.7 °F /  18.7 °C 52.7 °F /  11.5 °C 30.5in /  1032.2hPa SSE 0.9mph /  1.4km/h 1mph /  1.6km/h 63% 0in /  0.0mm 151 W/m2
14:02 65.5 °F /  18.6 °C 52.2 °F /  11.2 °C 30.5in /  1032.2hPa North 0.9mph /  1.4km/h 3mph /  4.8km/h 62% 0in /  0.0mm 239 W/m2
14:07 65.7 °F /  18.7 °C 52.7 °F /  11.5 °C 30.5in /  1032.2hPa NW 0.9mph /  1.4km/h 5mph /  8km/h 63% 0in /  0.0mm 353 W/m2
14:12 65.8 °F /  18.8 °C 52.5 °F /  11.4 °C 30.5in /  1032.2hPa NNE 0.9mph /  1.4km/h 2mph /  3.2km/h 62% 0in /  0.0mm 420 W/m2
14:17 66.2 °F /  19 °C 52.9 °F /  11.6 °C 30.5in /  1032.2hPa Calm   3mph /  4.8km/h 62% 0in /  0.0mm 311 W/m2
14:22 66.4 °F /  19.1 °C 52.9 °F /  11.6 °C 30.5in /  1032.2hPa NNE 0.9mph /  1.4km/h 4mph /  6.4km/h 62% 0in /  0.0mm 239 W/m2
14:27 66.4 °F /  19.1 °C 52.2 °F /  11.2 °C 30.5in /  1032.2hPa Calm   2mph /  3.2km/h 60% 0in /  0.0mm 229 W/m2
14:32 66.6 °F /  19.2 °C 52.7 °F /  11.5 °C 30.5in /  1032.5hPa North 0.9mph /  1.4km/h 6mph /  9.7km/h 61% 0in /  0.0mm 311 W/m2
14:37 66.7 °F /  19.3 °C 52.3 °F /  11.3 °C 30.5in /  1032.2hPa Calm   3mph /  4.8km/h 60% 0in /  0.0mm 417 W/m2
14:42 67.1 °F /  19.5 °C 51.8 °F /  11 °C 30.5in /  1032.2hPa NW 2mph /  3.2km/h 4mph /  6.4km/h 58% 0in /  0.0mm 598 W/m2
14:47 67.5 °F /  19.7 °C 52.2 °F /  11.2 °C 30.5in /  1032.2hPa Calm   2mph /  3.2km/h 58% 0in /  0.0mm 577 W/m2
14:53 67.8 °F /  19.9 °C 52.9 °F /  11.6 °C 30.5in /  1032.2hPa WSW 2mph /  3.2km/h 6mph /  9.7km/h 59% 0in /  0.0mm 346 W/m2
14:58 67.5 °F /  19.7 °C 52.2 °F /  11.2 °C 30.5in /  1032.2hPa Calm   2mph /  3.2km/h 58% 0in /  0.0mm 390 W/m2
15:03 67.6 °F /  19.8 °C 51.8 °F /  11 °C 30.5in /  1031.8hPa ENE 2mph /  3.2km/h 4mph /  6.4km/h 57% 0in /  0.0mm 622 W/m2
15:08 68.4 °F /  20.2 °C 52 °F /  11.1 °C 30.5in /  1032.2hPa NNW 0.9mph /  1.4km/h 6mph /  9.7km/h 56% 0in /  0.0mm 427 W/m2
15:13 68.5 °F /  20.3 °C 52.7 °F /  11.5 °C 30.5in /  1031.8hPa ESE 2mph /  3.2km/h 2mph /  3.2km/h 57% 0in /  0.0mm 469 W/m2
15:18 68.7 °F /  20.4 °C 50.4 °F /  10.2 °C 30.5in /  1031.8hPa West 2.9mph /  4.7km/h 3mph /  4.8km/h 52% 0in /  0.0mm 348 W/m2
15:23 68.9 °F /  20.5 °C 50 °F /  10 °C 30.5in /  1032.2hPa WNW 2mph /  3.2km/h 3mph /  4.8km/h 51% 0in /  0.0mm 272 W/m2
15:28 68.7 °F /  20.4 °C 49.8 °F /  9.9 °C 30.5in /  1032.2hPa East 2mph /  3.2km/h 4mph /  6.4km/h 51% 0in /  0.0mm 230 W/m2
15:33 68.4 °F /  20.2 °C 49.5 °F /  9.7 °C 30.5in /  1032.2hPa WNW 2.9mph /  4.7km/h 6mph /  9.7km/h 51% 0in /  0.0mm 278 W/m2
15:38 67.8 °F /  19.9 °C 49.1 °F /  9.5 °C 30.5in /  1031.8hPa West 2mph /  3.2km/h 6mph /  9.7km/h 51% 0in /  0.0mm 343 W/m2
15:43 67.6 °F /  19.8 °C 48.9 °F /  9.4 °C 30.5in /  1031.8hPa SSW 0.9mph /  1.4km/h 5mph /  8km/h 51% 0in /  0.0mm 411 W/m2
15:48 68 °F /  20 °C 50.2 °F /  10.1 °C 30.5in /  1031.8hPa NW 2.9mph /  4.7km/h 4mph /  6.4km/h 53% 0in /  0.0mm 388 W/m2
15:53 68.4 °F /  20.2 °C 49.5 °F /  9.7 °C 30.5in /  1031.8hPa South 0.9mph /  1.4km/h 5mph /  8km/h 51% 0in /  0.0mm 364 W/m2
15:58 68.4 °F /  20.2 °C 48.9 °F /  9.4 °C 30.5in /  1031.8hPa ENE 4mph /  6.4km/h 4mph /  6.4km/h 50% 0in /  0.0mm 297 W/m2
16:03 68.2 °F /  20.1 °C 49.3 °F /  9.6 °C 30.5in /  1031.8hPa NW 0.9mph /  1.4km/h 5mph /  8km/h 51% 0in /  0.0mm 274 W/m2
16:08 68.2 °F /  20.1 °C 49.8 °F /  9.9 °C 30.5in /  1031.8hPa NE 2mph /  3.2km/h 2mph /  3.2km/h 52% 0in /  0.0mm 287 W/m2
16:13 68.2 °F /  20.1 °C 49.8 °F /  9.9 °C 30.5in /  1031.8hPa NNW 2mph /  3.2km/h 5mph /  8km/h 52% 0in /  0.0mm 246 W/m2
16:18 68.2 °F /  20.1 °C 50.9 °F /  10.5 °C 30.5in /  1031.8hPa East 4mph /  6.4km/h 4mph /  6.4km/h 54% 0in /  0.0mm 311 W/m2
16:23 68.4 °F /  20.2 °C 51.1 °F /  10.6 °C 30.5in /  1031.8hPa NE 2.9mph /  4.7km/h 3mph /  4.8km/h 54% 0in /  0.0mm 420 W/m2
16:28 68.7 °F /  20.4 °C 50.9 °F /  10.5 °C 30.5in /  1031.8hPa NW 0.9mph /  1.4km/h 3mph /  4.8km/h 53% 0in /  0.0mm 482 W/m2
16:33 69.1 °F /  20.6 °C 50.2 °F /  10.1 °C 30.5in /  1031.8hPa NW 4.9mph /  7.9km/h 8mph /  12.9km/h 51% 0in /  0.0mm 526 W/m2
16:38 68.9 °F /  20.5 °C 49.5 °F /  9.7 °C 30.5in /  1031.8hPa West 6.9mph /  11.1km/h 13mph /  20.9km/h 50% 0in /  0.0mm 533 W/m2
16:43 69.1 °F /  20.6 °C 50.7 °F /  10.4 °C 30.5in /  1031.5hPa ESE 0.9mph /  1.4km/h 3mph /  4.8km/h 52% 0in /  0.0mm 796 W/m2
16:48 69.4 °F /  20.8 °C 50 °F /  10 °C 30.5in /  1031.5hPa ESE 2.9mph /  4.7km/h 13mph /  20.9km/h 50% 0in /  0.0mm 373 W/m2
16:53 69.3 °F /  20.7 °C 50.4 °F /  10.2 °C 30.5in /  1031.5hPa SE 2mph /  3.2km/h 3mph /  4.8km/h 51% 0in /  0.0mm 501 W/m2
16:58 69.3 °F /  20.7 °C 50.4 °F /  10.2 °C 30.5in /  1031.5hPa NNE 2.9mph /  4.7km/h 6mph /  9.7km/h 51% 0in /  0.0mm 445 W/m2
17:03 69.3 °F /  20.7 °C 50.9 °F /  10.5 °C 30.5in /  1031.5hPa Calm   1mph /  1.6km/h 52% 0in /  0.0mm 243 W/m2
17:08 68.9 °F /  20.5 °C 50.5 °F /  10.3 °C 30.5in /  1031.5hPa ENE 2.9mph /  4.7km/h 4mph /  6.4km/h 52% 0in /  0.0mm 199 W/m2
17:13 68.4 °F /  20.2 °C 51.1 °F /  10.6 °C 30.5in /  1031.5hPa ESE 4mph /  6.4km/h 4mph /  6.4km/h 54% 0in /  0.0mm 214 W/m2
17:18 68.2 °F /  20.1 °C 50.9 °F /  10.5 °C 30.5in /  1031.5hPa East 2.9mph /  4.7km/h 3mph /  4.8km/h 54% 0in /  0.0mm 264 W/m2
17:23 67.8 °F /  19.9 °C 50.5 °F /  10.3 °C 30.5in /  1031.5hPa Calm   2mph /  3.2km/h 54% 0in /  0.0mm 311 W/m2
17:28 68.2 °F /  20.1 °C 50.9 °F /  10.5 °C 30.5in /  1031.5hPa North 2mph /  3.2km/h 2mph /  3.2km/h 54% 0in /  0.0mm 392 W/m2
17:33 68.7 °F /  20.4 °C 51.4 °F /  10.8 °C 30.5in /  1031.5hPa ENE 0.9mph /  1.4km/h 3mph /  4.8km/h 54% 0in /  0.0mm 517 W/m2
17:38 69.4 °F /  20.8 °C 52.2 °F /  11.2 °C 30.5in /  1031.5hPa NW 2mph /  3.2km/h 3mph /  4.8km/h 54% 0in /  0.0mm 441 W/m2
17:43 69.6 °F /  20.9 °C 51.8 °F /  11 °C 30.5in /  1031.5hPa NE 0.9mph /  1.4km/h 2mph /  3.2km/h 53% 0in /  0.0mm 195 W/m2
17:48 69.4 °F /  20.8 °C 51.1 °F /  10.6 °C 30.5in /  1031.5hPa Calm   4mph /  6.4km/h 52% 0in /  0.0mm 113 W/m2
17:53 68.9 °F /  20.5 °C 51.1 °F /  10.6 °C 30.5in /  1031.5hPa WNW 2.9mph /  4.7km/h 4mph /  6.4km/h 53% 0in /  0.0mm 109 W/m2
17:58 69.1 °F /  20.6 °C 51.3 °F /  10.7 °C 30.5in /  1031.5hPa West 2mph /  3.2km/h 4mph /  6.4km/h 53% 0in /  0.0mm 107 W/m2
18:03 68.9 °F /  20.5 °C 51.1 °F /  10.6 °C 30.5in /  1031.5hPa NNE 2.9mph /  4.7km/h 3mph /  4.8km/h 53% 0in /  0.0mm 471 W/m2
18:08 69.4 °F /  20.8 °C 51.6 °F /  10.9 °C 30.5in /  1031.5hPa WSW 2mph /  3.2km/h 4mph /  6.4km/h 53% 0in /  0.0mm 457 W/m2
18:13 70 °F /  21.1 °C 52 °F /  11.1 °C 30.5in /  1031.5hPa NE 0.9mph /  1.4km/h 3mph /  4.8km/h 53% 0in /  0.0mm 443 W/m2
18:18 70.2 °F /  21.2 °C 51.8 °F /  11 °C 30.5in /  1031.5hPa WSW 2mph /  3.2km/h 2mph /  3.2km/h 52% 0in /  0.0mm 431 W/m2
18:23 70.3 °F /  21.3 °C 50.9 °F /  10.5 °C 30.5in /  1031.5hPa WNW 0.9mph /  1.4km/h 6mph /  9.7km/h 50% 0in /  0.0mm 410 W/m2
18:29 70.2 °F /  21.2 °C 50.7 °F /  10.4 °C 30.5in /  1031.5hPa NNW 6mph /  9.7km/h 6mph /  9.7km/h 50% 0in /  0.0mm 374 W/m2
18:34 70 °F /  21.1 °C 50.5 °F /  10.3 °C 30.5in /  1031.5hPa West 8.1mph /  13km/h 9mph /  14.5km/h 50% 0in /  0.0mm 336 W/m2
18:39 70.2 °F /  21.2 °C 50.7 °F /  10.4 °C 30.5in /  1031.2hPa NE 0.9mph /  1.4km/h 3mph /  4.8km/h 50% 0in /  0.0mm 306 W/m2
18:44 70.2 °F /  21.2 °C 50.2 °F /  10.1 °C 30.5in /  1031.2hPa ENE 0.9mph /  1.4km/h 9mph /  14.5km/h 49% 0in /  0.0mm 288 W/m2
18:49 70.3 °F /  21.3 °C 50.4 °F /  10.2 °C 30.5in /  1031.2hPa West 0.9mph /  1.4km/h 3mph /  4.8km/h 49% 0in /  0.0mm 274 W/m2
18:54 70.5 °F /  21.4 °C 50.4 °F /  10.2 °C 30.5in /  1031.2hPa SE 6.9mph /  11.1km/h 8mph /  12.9km/h 49% 0in /  0.0mm 69 W/m2
18:59 70 °F /  21.1 °C 50.5 °F /  10.3 °C 30.5in /  1031.2hPa NNW 0.9mph /  1.4km/h 3mph /  4.8km/h 50% 0in /  0.0mm 267 W/m2
19:04 70 °F /  21.1 °C 50 °F /  10 °C 30.5in /  1031.2hPa West 2.9mph /  4.7km/h 3mph /  4.8km/h 49% 0in /  0.0mm 294 W/m2
19:09 70.2 °F /  21.2 °C 50.2 °F /  10.1 °C 30.5in /  1031.2hPa Calm   3mph /  4.8km/h 49% 0in /  0.0mm 292 W/m2
19:14 70.5 °F /  21.4 °C 50.9 °F /  10.5 °C 30.5in /  1031.2hPa NNE 2mph /  3.2km/h 4mph /  6.4km/h 50% 0in /  0.0mm 313 W/m2
19:19 70.5 °F /  21.4 °C 50.9 °F /  10.5 °C 30.5in /  1031.2hPa NNE 0.9mph /  1.4km/h 4mph /  6.4km/h 50% 0in /  0.0mm 316 W/m2
19:24 70.5 °F /  21.4 °C 50.9 °F /  10.5 °C 30.5in /  1031.2hPa NE 0.9mph /  1.4km/h 6mph /  9.7km/h 50% 0in /  0.0mm 274 W/m2
19:29 70.9 °F /  21.6 °C 51.8 °F /  11 °C 30.5in /  1031.2hPa NNE 2.9mph /  4.7km/h 3mph /  4.8km/h 51% 0in /  0.0mm 246 W/m2
19:34 70.7 °F /  21.5 °C 51.6 °F /  10.9 °C 30.5in /  1031.2hPa East 2.9mph /  4.7km/h 6mph /  9.7km/h 51% 0in /  0.0mm 220 W/m2
19:39 70.3 °F /  21.3 °C 51.4 °F /  10.8 °C 30.5in /  1031.2hPa ESE 2mph /  3.2km/h 7mph /  11.3km/h 51% 0in /  0.0mm 199 W/m2
19:44 70 °F /  21.1 °C 51.1 °F /  10.6 °C 30.5in /  1031.2hPa ENE 2.9mph /  4.7km/h 3mph /  4.8km/h 51% 0in /  0.0mm 155 W/m2
19:50 69.6 °F /  20.9 °C 51.3 °F /  10.7 °C 30.5in /  1031.2hPa NNW 0.9mph /  1.4km/h 6mph /  9.7km/h 52% 0in /  0.0mm 137 W/m2
19:55 69.6 °F /  20.9 °C 51.3 °F /  10.7 °C 30.5in /  1031.2hPa ENE 2mph /  3.2km/h 3mph /  4.8km/h 52% 0in /  0.0mm 132 W/m2
20:00 69.6 °F /  20.9 °C 51.8 °F /  11 °C 30.5in /  1031.2hPa NE 2mph /  3.2km/h 3mph /  4.8km/h 53% 0in /  0.0mm 132 W/m2
20:05 69.4 °F /  20.8 °C 51.6 °F /  10.9 °C 30.5in /  1031.2hPa NNW 0.9mph /  1.4km/h 2mph /  3.2km/h 53% 0in /  0.0mm 123 W/m2
20:10 69.4 °F /  20.8 °C 51.6 °F /  10.9 °C 30.5in /  1031.2hPa ENE 2.9mph /  4.7km/h 4mph /  6.4km/h 53% 0in /  0.0mm 109 W/m2
20:15 69.3 °F /  20.7 °C 51.4 °F /  10.8 °C 30.5in /  1031.2hPa NE 0.9mph /  1.4km/h 1mph /  1.6km/h 53% 0in /  0.0mm 97 W/m2
20:20 69.3 °F /  20.7 °C 51.4 °F /  10.8 °C 30.5in /  1031.2hPa NW 2mph /  3.2km/h 3mph /  4.8km/h 53% 0in /  0.0mm 88 W/m2
20:25 68.7 °F /  20.4 °C 51.4 °F /  10.8 °C 30.5in /  1031.5hPa NNW 0.9mph /  1.4km/h 5mph /  8km/h 54% 0in /  0.0mm 83 W/m2
20:30 68.5 °F /  20.3 °C 51.8 °F /  11 °C 30.5in /  1031.5hPa WNW 2mph /  3.2km/h 2mph /  3.2km/h 55% 0in /  0.0mm 76 W/m2
20:35 68.5 °F /  20.3 °C 51.8 °F /  11 °C 30.5in /  1031.5hPa SSE 0.9mph /  1.4km/h 5mph /  8km/h 55% 0in /  0.0mm 54 W/m2
20:40 68.2 °F /  20.1 °C 51.4 °F /  10.8 °C 30.5in /  1031.5hPa NNW 0.9mph /  1.4km/h 2mph /  3.2km/h 55% 0in /  0.0mm 42 W/m2
20:45 68 °F /  20 °C 51.8 °F /  11 °C 30.5in /  1031.5hPa ENE 2mph /  3.2km/h 3mph /  4.8km/h 56% 0in /  0.0mm 37 W/m2
20:50 67.6 °F /  19.8 °C 51.8 °F /  11 °C 30.5in /  1031.5hPa NNW 0.9mph /  1.4km/h 3mph /  4.8km/h 57% 0in /  0.0mm 32 W/m2
20:55 67.5 °F /  19.7 °C 52.2 °F /  11.2 °C 30.5in /  1031.5hPa Calm   1mph /  1.6km/h 58% 0in /  0.0mm 25 W/m2
21:00 66.9 °F /  19.4 °C 52.2 °F /  11.2 °C 30.5in /  1031.5hPa Calm   2mph /  3.2km/h 59% 0in /  0.0mm 19 W/m2
21:05 66.4 °F /  19.1 °C 51.6 °F /  10.9 °C 30.5in /  1031.5hPa North 0.9mph /  1.4km/h 1mph /  1.6km/h 59% 0in /  0.0mm 16 W/m2
21:10 66 °F /  18.9 °C 51.3 °F /  10.7 °C 30.5in /  1031.5hPa Calm   1mph /  1.6km/h 59% 0in /  0.0mm 12 W/m2
21:15 65.8 °F /  18.8 °C 51.6 °F /  10.9 °C 30.5in /  1031.5hPa Calm   1mph /  1.6km/h 60% 0in /  0.0mm 9 W/m2
21:20 65.5 °F /  18.6 °C 51.6 °F /  10.9 °C 30.5in /  1031.5hPa East 0.9mph /  1.4km/h 1mph /  1.6km/h 61% 0in /  0.0mm 7 W/m2
21:25 65.1 °F /  18.4 °C 52.2 °F /  11.2 °C 30.5in /  1031.5hPa East 0.9mph /  1.4km/h 1mph /  1.6km/h 63% 0in /  0.0mm 5 W/m2
21:30 64.4 °F /  18 °C 52.3 °F /  11.3 °C 30.5in /  1031.5hPa East 0.9mph /  1.4km/h 1mph /  1.6km/h 65% 0in /  0.0mm 0 W/m2
21:35 63.7 °F /  17.6 °C 52.5 °F /  11.4 °C 30.5in /  1031.8hPa Calm   1mph /  1.6km/h 67% 0in /  0.0mm 0 W/m2
21:40 63.1 °F /  17.3 °C 52.3 °F /  11.3 °C 30.5in /  1031.8hPa East 0.9mph /  1.4km/h 2mph /  3.2km/h 68% 0in /  0.0mm 0 W/m2
21:45 62.2 °F /  16.8 °C 52 °F /  11.1 °C 30.5in /  1031.8hPa Calm     69% 0in /  0.0mm 0 W/m2
21:50 61.9 °F /  16.6 °C 52 °F /  11.1 °C 30.5in /  1031.8hPa Calm   2mph /  3.2km/h 70% 0in /  0.0mm 0 W/m2
21:55 61.3 °F /  16.3 °C 51.8 °F /  11 °C 30.5in /  1031.8hPa Calm   2mph /  3.2km/h 71% 0in /  0.0mm 0 W/m2
22:00 60.8 °F /  16 °C 51.8 °F /  11 °C 30.5in /  1031.8hPa Calm     72% 0in /  0.0mm 0 W/m2
22:05 60.3 °F /  15.7 °C 52 °F /  11.1 °C 30.5in /  1031.8hPa Calm     74% 0in /  0.0mm 0 W/m2
22:10 59.7 °F /  15.4 °C 51.4 °F /  10.8 °C 30.5in /  1031.8hPa Calm   2mph /  3.2km/h 74% 0in /  0.0mm 0 W/m2
22:15 59.5 °F /  15.3 °C 51.6 °F /  10.9 °C 30.5in /  1032.2hPa Calm     75% 0in /  0.0mm 0 W/m2
22:20 59.4 °F /  15.2 °C 51.4 °F /  10.8 °C 30.5in /  1031.8hPa Calm   2mph /  3.2km/h 75% 0in /  0.0mm 0 W/m2
22:25 59.2 °F /  15.1 °C 51.6 °F /  10.9 °C 30.5in /  1032.2hPa Calm     76% 0in /  0.0mm 0 W/m2
22:30 58.8 °F /  14.9 °C 51.3 °F /  10.7 °C 30.5in /  1032.2hPa Calm   1mph /  1.6km/h 76% 0in /  0.0mm 0 W/m2
22:35 58.6 °F /  14.8 °C 51.4 °F /  10.8 °C 30.5in /  1032.2hPa Calm     77% 0in /  0.0mm 0 W/m2
22:40 58.5 °F /  14.7 °C 51.3 °F /  10.7 °C 30.5in /  1032.2hPa Calm     77% 0in /  0.0mm 0 W/m2
22:45 58.3 °F /  14.6 °C 51.4 °F /  10.8 °C 30.5in /  1032.2hPa SSW 0.9mph /  1.4km/h 2mph /  3.2km/h 78% 0in /  0.0mm 0 W/m2
22:50 58.1 °F /  14.5 °C 51.3 °F /  10.7 °C 30.5in /  1032.2hPa Calm     78% 0in /  0.0mm 0 W/m2
22:55 57.9 °F /  14.4 °C 51.1 °F /  10.6 °C 30.5in /  1032.2hPa SSW 0.9mph /  1.4km/h 2mph /  3.2km/h 78% 0in /  0.0mm 0 W/m2
23:00 57.6 °F /  14.2 °C 51.1 °F /  10.6 °C 30.5in /  1032.2hPa Calm     79% 0in /  0.0mm 0 W/m2
23:05 57.6 °F /  14.2 °C 51.1 °F /  10.6 °C 30.5in /  1032.2hPa Calm     79% 0in /  0.0mm 0 W/m2
23:10 57.2 °F /  14 °C 50.7 °F /  10.4 °C 30.5in /  1032.2hPa Calm     79% 0in /  0.0mm 0 W/m2
23:15 57 °F /  13.9 °C 50.9 °F /  10.5 °C 30.5in /  1032.2hPa Calm     80% 0in /  0.0mm 0 W/m2
23:20 56.8 °F /  13.8 °C 50.7 °F /  10.4 °C 30.5in /  1032.2hPa Calm     80% 0in /  0.0mm 0 W/m2
23:25 56.7 °F /  13.7 °C 50.5 °F /  10.3 °C 30.5in /  1032.5hPa Calm     80% 0in /  0.0mm 0 W/m2
23:30 56.5 °F /  13.6 °C 50.4 °F /  10.2 °C 30.5in /  1032.5hPa Calm     80% 0in /  0.0mm 0 W/m2
23:35 56.3 °F /  13.5 °C 50.5 °F /  10.3 °C 30.5in /  1032.5hPa SSW 0.9mph /  1.4km/h 1mph /  1.6km/h 81% 0in /  0.0mm 0 W/m2
23:40 55.9 °F /  13.3 °C 50.2 °F /  10.1 °C 30.5in /  1032.5hPa Calm     81% 0in /  0.0mm 0 W/m2
23:45 55.9 °F /  13.3 °C 50.5 °F /  10.3 °C 30.5in /  1032.5hPa Calm   1mph /  1.6km/h 82% 0in /  0.0mm 0 W/m2
23:50 55.8 °F /  13.2 °C 50.4 °F /  10.2 °C 30.5in /  1032.5hPa Calm     82% 0in /  0.0mm 0 W/m2
23:55 55.8 °F /  13.2 °C 50.7 °F /  10.4 °C 30.5in /  1032.5hPa Calm     83% 0in /  0.0mm 0 W/m2
Juneau County Weather
Compliments of Weather Underground - 4 mb